sensor_id;sensor_type;location;lat;lon;timestamp;P1;durP1;ratioP1;P2;durP2;ratioP2
434;SDS011;204;48.942;9.256;2022-08-03T00:01:52;3.63;;;3.40;;
434;SDS011;204;48.942;9.256;2022-08-03T00:04:18;4.07;;;3.87;;
434;SDS011;204;48.942;9.256;2022-08-03T00:06:43;4.57;;;2.90;;
434;SDS011;204;48.942;9.256;2022-08-03T00:09:09;4.80;;;4.00;;
434;SDS011;204;48.942;9.256;2022-08-03T00:11:35;4.20;;;3.77;;
434;SDS011;204;48.942;9.256;2022-08-03T00:14:03;4.40;;;4.10;;
434;SDS011;204;48.942;9.256;2022-08-03T00:16:29;5.10;;;4.33;;
434;SDS011;204;48.942;9.256;2022-08-03T00:18:54;4.00;;;3.80;;
434;SDS011;204;48.942;9.256;2022-08-03T00:21:20;5.33;;;3.57;;
434;SDS011;204;48.942;9.256;2022-08-03T00:23:46;4.50;;;4.20;;
434;SDS011;204;48.942;9.256;2022-08-03T00:26:11;7.50;;;3.70;;
434;SDS011;204;48.942;9.256;2022-08-03T00:28:37;3.80;;;3.60;;
434;SDS011;204;48.942;9.256;2022-08-03T00:31:02;6.23;;;3.50;;
434;SDS011;204;48.942;9.256;2022-08-03T00:33:28;4.90;;;3.97;;
434;SDS011;204;48.942;9.256;2022-08-03T00:35:54;5.27;;;3.33;;
434;SDS011;204;48.942;9.256;2022-08-03T00:38:19;3.90;;;3.73;;
434;SDS011;204;48.942;9.256;2022-08-03T00:40:45;4.50;;;4.20;;
434;SDS011;204;48.942;9.256;2022-08-03T00:43:11;5.00;;;3.90;;
434;SDS011;204;48.942;9.256;2022-08-03T00:45:37;4.00;;;3.80;;
434;SDS011;204;48.942;9.256;2022-08-03T00:48:05;5.60;;;3.90;;
434;SDS011;204;48.942;9.256;2022-08-03T00:50:35;5.60;;;3.97;;
434;SDS011;204;48.942;9.256;2022-08-03T00:53:04;5.37;;;4.83;;
434;SDS011;204;48.942;9.256;2022-08-03T00:55:31;3.80;;;3.50;;
434;SDS011;204;48.942;9.256;2022-08-03T00:57:59;4.33;;;3.80;;
434;SDS011;204;48.942;9.256;2022-08-03T01:00:28;15.67;;;4.10;;
434;SDS011;204;48.942;9.256;2022-08-03T01:02:54;3.97;;;3.80;;
434;SDS011;204;48.942;9.256;2022-08-03T01:05:20;4.40;;;4.00;;
434;SDS011;204;48.942;9.256;2022-08-03T01:07:59;6.20;;;3.60;;
434;SDS011;204;48.942;9.256;2022-08-03T01:30:41;4.17;;;3.93;;
434;SDS011;204;48.942;9.256;2022-08-03T01:33:17;3.77;;;3.57;;
434;SDS011;204;48.942;9.256;2022-08-03T01:35:53;3.90;;;3.70;;
434;SDS011;204;48.942;9.256;2022-08-03T01:38:28;4.73;;;3.53;;
434;SDS011;204;48.942;9.256;2022-08-03T01:40:57;4.60;;;3.80;;
434;SDS011;204;48.942;9.256;2022-08-03T01:43:39;4.57;;;4.27;;
434;SDS011;204;48.942;9.256;2022-08-03T01:46:09;5.43;;;3.53;;
434;SDS011;204;48.942;9.256;2022-08-03T01:48:36;4.30;;;3.63;;
434;SDS011;204;48.942;9.256;2022-08-03T01:51:03;4.43;;;3.70;;
434;SDS011;204;48.942;9.256;2022-08-03T01:53:31;4.00;;;3.73;;
434;SDS011;204;48.942;9.256;2022-08-03T01:55:59;3.43;;;3.23;;
434;SDS011;204;48.942;9.256;2022-08-03T01:58:26;4.03;;;3.83;;
434;SDS011;204;48.942;9.256;2022-08-03T02:00:53;4.23;;;3.73;;
434;SDS011;204;48.942;9.256;2022-08-03T02:03:23;4.33;;;4.03;;
434;SDS011;204;48.942;9.256;2022-08-03T02:05:50;4.33;;;4.03;;
434;SDS011;204;48.942;9.256;2022-08-03T02:08:17;4.03;;;3.83;;
434;SDS011;204;48.942;9.256;2022-08-03T02:10:43;4.63;;;4.33;;
434;SDS011;204;48.942;9.256;2022-08-03T02:13:11;4.83;;;4.57;;
434;SDS011;204;48.942;9.256;2022-08-03T02:15:37;4.13;;;3.90;;
434;SDS011;204;48.942;9.256;2022-08-03T02:18:05;4.40;;;4.20;;
434;SDS011;204;48.942;9.256;2022-08-03T02:20:34;4.60;;;4.30;;
434;SDS011;204;48.942;9.256;2022-08-03T02:23:02;4.30;;;4.03;;
434;SDS011;204;48.942;9.256;2022-08-03T02:25:30;4.47;;;4.17;;
434;SDS011;204;48.942;9.256;2022-08-03T02:28:00;4.70;;;3.97;;
434;SDS011;204;48.942;9.256;2022-08-03T02:30:35;4.00;;;3.80;;
434;SDS011;204;48.942;9.256;2022-08-03T02:33:03;5.53;;;4.43;;
434;SDS011;204;48.942;9.256;2022-08-03T02:35:31;4.90;;;4.60;;
434;SDS011;204;48.942;9.256;2022-08-03T02:38:02;4.30;;;4.00;;
434;SDS011;204;48.942;9.256;2022-08-03T02:40:31;4.83;;;4.53;;
434;SDS011;204;48.942;9.256;2022-08-03T02:43:07;4.70;;;4.40;;
434;SDS011;204;48.942;9.256;2022-08-03T02:45:37;4.70;;;4.40;;
434;SDS011;204;48.942;9.256;2022-08-03T02:48:08;3.73;;;3.53;;
434;SDS011;204;48.942;9.256;2022-08-03T02:50:35;4.27;;;4.00;;
434;SDS011;204;48.942;9.256;2022-08-03T02:53:02;4.07;;;3.87;;
434;SDS011;204;48.942;9.256;2022-08-03T02:55:28;4.67;;;4.37;;
434;SDS011;204;48.942;9.256;2022-08-03T02:57:57;4.97;;;4.67;;
434;SDS011;204;48.942;9.256;2022-08-03T03:00:23;3.90;;;3.70;;
434;SDS011;204;48.942;9.256;2022-08-03T03:02:50;4.63;;;4.33;;
434;SDS011;204;48.942;9.256;2022-08-03T03:05:16;4.30;;;3.73;;
434;SDS011;204;48.942;9.256;2022-08-03T03:07:42;4.30;;;4.00;;
434;SDS011;204;48.942;9.256;2022-08-03T03:10:08;4.27;;;4.00;;
434;SDS011;204;48.942;9.256;2022-08-03T03:12:36;5.13;;;4.83;;
434;SDS011;204;48.942;9.256;2022-08-03T03:15:03;3.97;;;3.77;;
434;SDS011;204;48.942;9.256;2022-08-03T03:17:30;4.37;;;4.07;;
434;SDS011;204;48.942;9.256;2022-08-03T03:19:57;3.80;;;3.63;;
434;SDS011;204;48.942;9.256;2022-08-03T03:22:24;4.90;;;4.60;;
434;SDS011;204;48.942;9.256;2022-08-03T03:24:51;4.40;;;4.10;;
434;SDS011;204;48.942;9.256;2022-08-03T03:27:18;5.67;;;5.37;;
434;SDS011;204;48.942;9.256;2022-08-03T03:29:45;5.40;;;4.77;;
434;SDS011;204;48.942;9.256;2022-08-03T03:32:11;4.83;;;4.53;;
434;SDS011;204;48.942;9.256;2022-08-03T03:34:37;5.27;;;4.97;;
434;SDS011;204;48.942;9.256;2022-08-03T03:37:03;6.63;;;5.10;;
434;SDS011;204;48.942;9.256;2022-08-03T03:39:29;4.70;;;4.40;;
434;SDS011;204;48.942;9.256;2022-08-03T03:41:55;5.60;;;5.30;;
434;SDS011;204;48.942;9.256;2022-08-03T03:44:21;11.63;;;5.20;;
434;SDS011;204;48.942;9.256;2022-08-03T03:46:51;6.37;;;4.67;;
434;SDS011;204;48.942;9.256;2022-08-03T03:49:17;14.17;;;5.57;;
434;SDS011;204;48.942;9.256;2022-08-03T03:51:43;4.73;;;4.43;;
434;SDS011;204;48.942;9.256;2022-08-03T03:54:09;4.03;;;3.83;;
434;SDS011;204;48.942;9.256;2022-08-03T03:56:35;5.80;;;5.33;;
434;SDS011;204;48.942;9.256;2022-08-03T03:59:00;5.40;;;5.10;;
434;SDS011;204;48.942;9.256;2022-08-03T04:01:26;5.40;;;4.70;;
434;SDS011;204;48.942;9.256;2022-08-03T04:03:52;5.00;;;4.53;;
434;SDS011;204;48.942;9.256;2022-08-03T04:06:18;5.53;;;5.23;;
434;SDS011;204;48.942;9.256;2022-08-03T04:09:02;4.30;;;4.00;;
434;SDS011;204;48.942;9.256;2022-08-03T04:11:51;5.17;;;4.87;;
434;SDS011;204;48.942;9.256;2022-08-03T04:14:18;4.97;;;4.60;;
434;SDS011;204;48.942;9.256;2022-08-03T04:16:57;4.77;;;4.47;;
434;SDS011;204;48.942;9.256;2022-08-03T04:19:29;5.00;;;4.70;;
434;SDS011;204;48.942;9.256;2022-08-03T04:22:11;5.17;;;4.87;;
434;SDS011;204;48.942;9.256;2022-08-03T04:24:42;5.00;;;4.70;;
434;SDS011;204;48.942;9.256;2022-08-03T04:27:13;5.50;;;5.20;;
434;SDS011;204;48.942;9.256;2022-08-03T04:29:44;5.20;;;4.90;;
434;SDS011;204;48.942;9.256;2022-08-03T04:32:13;5.47;;;4.57;;
434;SDS011;204;48.942;9.256;2022-08-03T04:34:40;4.63;;;4.37;;
434;SDS011;204;48.942;9.256;2022-08-03T04:37:13;5.13;;;4.80;;
434;SDS011;204;48.942;9.256;2022-08-03T04:39:55;6.47;;;4.90;;
434;SDS011;204;48.942;9.256;2022-08-03T04:42:25;7.87;;;5.33;;
434;SDS011;204;48.942;9.256;2022-08-03T04:44:51;5.20;;;4.90;;
434;SDS011;204;48.942;9.256;2022-08-03T04:47:18;5.10;;;4.80;;
434;SDS011;204;48.942;9.256;2022-08-03T04:49:44;5.00;;;4.70;;
434;SDS011;204;48.942;9.256;2022-08-03T04:52:11;8.10;;;5.00;;
434;SDS011;204;48.942;9.256;2022-08-03T04:54:42;5.30;;;5.00;;
434;SDS011;204;48.942;9.256;2022-08-03T04:57:09;5.00;;;4.70;;
434;SDS011;204;48.942;9.256;2022-08-03T04:59:36;5.50;;;5.20;;
434;SDS011;204;48.942;9.256;2022-08-03T05:02:02;6.10;;;5.07;;
434;SDS011;204;48.942;9.256;2022-08-03T05:04:28;4.80;;;4.33;;
434;SDS011;204;48.942;9.256;2022-08-03T05:06:53;4.73;;;4.47;;
434;SDS011;204;48.942;9.256;2022-08-03T05:09:19;23.63;;;6.50;;
434;SDS011;204;48.942;9.256;2022-08-03T05:11:44;18.10;;;7.43;;
434;SDS011;204;48.942;9.256;2022-08-03T05:14:10;8.47;;;4.80;;
434;SDS011;204;48.942;9.256;2022-08-03T05:16:36;5.80;;;4.50;;
434;SDS011;204;48.942;9.256;2022-08-03T05:19:01;4.67;;;4.37;;
434;SDS011;204;48.942;9.256;2022-08-03T05:21:27;6.13;;;5.20;;
434;SDS011;204;48.942;9.256;2022-08-03T05:23:53;5.00;;;4.70;;
434;SDS011;204;48.942;9.256;2022-08-03T05:26:18;4.00;;;3.80;;
434;SDS011;204;48.942;9.256;2022-08-03T05:28:44;4.47;;;4.17;;
434;SDS011;204;48.942;9.256;2022-08-03T05:31:10;4.93;;;4.63;;
434;SDS011;204;48.942;9.256;2022-08-03T05:33:37;5.00;;;4.30;;
434;SDS011;204;48.942;9.256;2022-08-03T05:36:03;4.53;;;4.17;;
434;SDS011;204;48.942;9.256;2022-08-03T05:38:30;5.80;;;4.50;;
434;SDS011;204;48.942;9.256;2022-08-03T05:40:56;4.83;;;4.33;;
434;SDS011;204;48.942;9.256;2022-08-03T05:43:22;5.13;;;3.80;;
434;SDS011;204;48.942;9.256;2022-08-03T05:45:48;4.00;;;3.73;;
434;SDS011;204;48.942;9.256;2022-08-03T05:48:14;4.50;;;4.20;;
434;SDS011;204;48.942;9.256;2022-08-03T05:50:39;4.70;;;3.90;;
434;SDS011;204;48.942;9.256;2022-08-03T05:53:05;4.83;;;4.07;;
434;SDS011;204;48.942;9.256;2022-08-03T05:55:30;3.87;;;3.67;;
434;SDS011;204;48.942;9.256;2022-08-03T05:57:56;4.00;;;3.80;;
434;SDS011;204;48.942;9.256;2022-08-03T06:00:22;3.73;;;3.53;;
434;SDS011;204;48.942;9.256;2022-08-03T06:02:48;3.87;;;3.50;;
434;SDS011;204;48.942;9.256;2022-08-03T06:05:13;4.70;;;3.50;;
434;SDS011;204;48.942;9.256;2022-08-03T06:07:39;3.93;;;3.73;;
434;SDS011;204;48.942;9.256;2022-08-03T06:10:04;5.03;;;3.80;;
434;SDS011;204;48.942;9.256;2022-08-03T06:12:31;5.70;;;3.77;;
434;SDS011;204;48.942;9.256;2022-08-03T06:14:59;3.90;;;3.50;;
434;SDS011;204;48.942;9.256;2022-08-03T06:17:26;3.30;;;3.10;;
434;SDS011;204;48.942;9.256;2022-08-03T06:19:52;5.40;;;3.90;;
434;SDS011;204;48.942;9.256;2022-08-03T06:22:17;3.80;;;3.60;;
434;SDS011;204;48.942;9.256;2022-08-03T06:24:44;4.73;;;4.30;;
434;SDS011;204;48.942;9.256;2022-08-03T06:27:09;7.47;;;4.20;;
434;SDS011;204;48.942;9.256;2022-08-03T06:29:36;4.90;;;4.10;;
434;SDS011;204;48.942;9.256;2022-08-03T06:32:01;4.70;;;4.07;;
434;SDS011;204;48.942;9.256;2022-08-03T06:34:27;5.80;;;4.17;;
434;SDS011;204;48.942;9.256;2022-08-03T06:36:53;4.43;;;3.70;;
434;SDS011;204;48.942;9.256;2022-08-03T06:39:19;5.07;;;4.00;;
434;SDS011;204;48.942;9.256;2022-08-03T06:41:48;4.93;;;4.63;;
434;SDS011;204;48.942;9.256;2022-08-03T06:44:13;4.73;;;3.93;;
434;SDS011;204;48.942;9.256;2022-08-03T06:46:39;5.50;;;3.20;;
434;SDS011;204;48.942;9.256;2022-08-03T06:49:05;5.20;;;3.57;;
434;SDS011;204;48.942;9.256;2022-08-03T06:51:31;3.83;;;3.47;;
434;SDS011;204;48.942;9.256;2022-08-03T06:53:56;3.80;;;3.60;;
434;SDS011;204;48.942;9.256;2022-08-03T06:56:22;3.60;;;3.40;;
434;SDS011;204;48.942;9.256;2022-08-03T06:58:47;3.47;;;3.27;;
434;SDS011;204;48.942;9.256;2022-08-03T07:01:13;3.50;;;3.30;;
434;SDS011;204;48.942;9.256;2022-08-03T07:03:39;4.63;;;3.23;;
434;SDS011;204;48.942;9.256;2022-08-03T07:06:05;4.37;;;3.30;;
434;SDS011;204;48.942;9.256;2022-08-03T07:08:30;4.23;;;3.60;;
434;SDS011;204;48.942;9.256;2022-08-03T07:10:56;3.90;;;3.57;;
434;SDS011;204;48.942;9.256;2022-08-03T07:13:22;3.60;;;3.40;;
434;SDS011;204;48.942;9.256;2022-08-03T07:15:47;3.83;;;3.63;;
434;SDS011;204;48.942;9.256;2022-08-03T07:18:13;3.40;;;3.20;;
434;SDS011;204;48.942;9.256;2022-08-03T07:20:39;3.13;;;2.93;;
434;SDS011;204;48.942;9.256;2022-08-03T07:23:04;4.17;;;3.33;;
434;SDS011;204;48.942;9.256;2022-08-03T07:25:30;3.07;;;2.53;;
434;SDS011;204;48.942;9.256;2022-08-03T07:27:56;3.57;;;3.20;;
434;SDS011;204;48.942;9.256;2022-08-03T07:30:22;3.80;;;3.60;;
434;SDS011;204;48.942;9.256;2022-08-03T07:32:47;4.20;;;3.70;;
434;SDS011;204;48.942;9.256;2022-08-03T07:35:13;3.40;;;3.23;;
434;SDS011;204;48.942;9.256;2022-08-03T07:37:39;4.60;;;3.80;;
434;SDS011;204;48.942;9.256;2022-08-03T07:40:05;3.30;;;3.10;;
434;SDS011;204;48.942;9.256;2022-08-03T07:42:30;3.30;;;3.00;;
434;SDS011;204;48.942;9.256;2022-08-03T07:44:56;3.13;;;2.93;;
434;SDS011;204;48.942;9.256;2022-08-03T07:47:24;3.80;;;2.90;;
434;SDS011;204;48.942;9.256;2022-08-03T07:49:52;4.73;;;3.50;;
434;SDS011;204;48.942;9.256;2022-08-03T07:52:18;3.40;;;3.20;;
434;SDS011;204;48.942;9.256;2022-08-03T07:55:03;3.90;;;3.30;;
434;SDS011;204;48.942;9.256;2022-08-03T07:57:30;3.13;;;2.93;;
434;SDS011;204;48.942;9.256;2022-08-03T07:59:55;3.30;;;3.10;;
434;SDS011;204;48.942;9.256;2022-08-03T08:02:21;3.10;;;2.90;;
434;SDS011;204;48.942;9.256;2022-08-03T08:04:47;6.30;;;3.07;;
434;SDS011;204;48.942;9.256;2022-08-03T08:07:12;5.67;;;3.57;;
434;SDS011;204;48.942;9.256;2022-08-03T08:09:38;3.30;;;3.10;;
434;SDS011;204;48.942;9.256;2022-08-03T08:12:04;3.23;;;2.63;;
434;SDS011;204;48.942;9.256;2022-08-03T08:14:31;5.20;;;2.77;;
434;SDS011;204;48.942;9.256;2022-08-03T08:16:57;4.83;;;3.17;;
434;SDS011;204;48.942;9.256;2022-08-03T08:19:23;2.70;;;2.50;;
434;SDS011;204;48.942;9.256;2022-08-03T08:21:49;11.03;;;2.97;;
434;SDS011;204;48.942;9.256;2022-08-03T08:24:14;2.60;;;2.40;;
434;SDS011;204;48.942;9.256;2022-08-03T08:26:40;2.67;;;2.47;;
434;SDS011;204;48.942;9.256;2022-08-03T08:29:05;4.03;;;3.23;;
434;SDS011;204;48.942;9.256;2022-08-03T08:31:31;7.73;;;3.10;;
434;SDS011;204;48.942;9.256;2022-08-03T08:33:56;3.83;;;3.40;;
434;SDS011;204;48.942;9.256;2022-08-03T08:36:22;3.53;;;3.13;;
434;SDS011;204;48.942;9.256;2022-08-03T08:38:48;4.33;;;2.70;;
434;SDS011;204;48.942;9.256;2022-08-03T08:41:14;3.27;;;2.67;;
434;SDS011;204;48.942;9.256;2022-08-03T08:43:40;2.87;;;2.67;;
434;SDS011;204;48.942;9.256;2022-08-03T08:46:06;3.10;;;2.57;;
434;SDS011;204;48.942;9.256;2022-08-03T08:48:38;2.20;;;2.00;;
434;SDS011;204;48.942;9.256;2022-08-03T08:51:05;4.00;;;3.77;;
434;SDS011;204;48.942;9.256;2022-08-03T08:53:33;3.97;;;2.40;;
434;SDS011;204;48.942;9.256;2022-08-03T08:56:01;2.23;;;2.03;;
434;SDS011;204;48.942;9.256;2022-08-03T08:58:28;1.90;;;1.80;;
434;SDS011;204;48.942;9.256;2022-08-03T09:00:56;2.20;;;2.00;;
434;SDS011;204;48.942;9.256;2022-08-03T09:03:22;2.60;;;1.80;;
434;SDS011;204;48.942;9.256;2022-08-03T09:05:47;2.03;;;1.90;;
434;SDS011;204;48.942;9.256;2022-08-03T09:08:14;2.67;;;2.03;;
434;SDS011;204;48.942;9.256;2022-08-03T09:10:39;1.90;;;1.80;;
434;SDS011;204;48.942;9.256;2022-08-03T09:13:05;3.33;;;2.30;;
434;SDS011;204;48.942;9.256;2022-08-03T09:15:32;5.37;;;4.00;;
434;SDS011;204;48.942;9.256;2022-08-03T09:17:58;2.57;;;2.37;;
434;SDS011;204;48.942;9.256;2022-08-03T09:20:25;1.90;;;1.80;;
434;SDS011;204;48.942;9.256;2022-08-03T09:23:00;2.33;;;2.13;;
434;SDS011;204;48.942;9.256;2022-08-03T09:25:26;2.47;;;2.27;;
434;SDS011;204;48.942;9.256;2022-08-03T09:28:16;2.10;;;1.57;;
434;SDS011;204;48.942;9.256;2022-08-03T09:30:43;2.00;;;1.90;;
434;SDS011;204;48.942;9.256;2022-08-03T09:33:21;1.83;;;1.73;;
434;SDS011;204;48.942;9.256;2022-08-03T09:35:47;2.33;;;2.13;;
434;SDS011;204;48.942;9.256;2022-08-03T09:38:23;2.23;;;2.03;;
434;SDS011;204;48.942;9.256;2022-08-03T09:40:50;8.27;;;2.40;;
434;SDS011;204;48.942;9.256;2022-08-03T09:43:16;3.77;;;1.77;;
434;SDS011;204;48.942;9.256;2022-08-03T09:45:41;4.37;;;1.77;;
434;SDS011;204;48.942;9.256;2022-08-03T09:50:48;2.00;;;1.50;;
434;SDS011;204;48.942;9.256;2022-08-03T09:53:14;4.03;;;1.93;;
434;SDS011;204;48.942;9.256;2022-08-03T09:55:49;1.70;;;1.60;;
434;SDS011;204;48.942;9.256;2022-08-03T09:58:26;1.50;;;1.40;;
434;SDS011;204;48.942;9.256;2022-08-03T10:00:57;1.50;;;1.40;;
434;SDS011;204;48.942;9.256;2022-08-03T10:03:28;1.70;;;1.67;;
434;SDS011;204;48.942;9.256;2022-08-03T10:05:55;2.87;;;1.73;;
434;SDS011;204;48.942;9.256;2022-08-03T10:08:22;1.90;;;1.80;;
434;SDS011;204;48.942;9.256;2022-08-03T10:10:49;1.87;;;1.77;;
434;SDS011;204;48.942;9.256;2022-08-03T10:13:18;2.93;;;1.97;;
434;SDS011;204;48.942;9.256;2022-08-03T10:15:44;2.27;;;1.67;;
434;SDS011;204;48.942;9.256;2022-08-03T10:18:11;2.20;;;2.00;;
434;SDS011;204;48.942;9.256;2022-08-03T10:20:40;2.63;;;1.80;;
434;SDS011;204;48.942;9.256;2022-08-03T10:23:12;2.40;;;2.20;;
434;SDS011;204;48.942;9.256;2022-08-03T10:25:40;4.13;;;2.80;;
434;SDS011;204;48.942;9.256;2022-08-03T10:28:10;5.00;;;3.80;;
434;SDS011;204;48.942;9.256;2022-08-03T10:30:39;2.57;;;2.37;;
434;SDS011;204;48.942;9.256;2022-08-03T10:33:26;3.17;;;2.20;;
434;SDS011;204;48.942;9.256;2022-08-03T10:35:55;2.40;;;2.03;;
434;SDS011;204;48.942;9.256;2022-08-03T10:38:25;2.23;;;1.70;;
434;SDS011;204;48.942;9.256;2022-08-03T10:40:56;1.80;;;1.70;;
434;SDS011;204;48.942;9.256;2022-08-03T10:43:26;1.70;;;1.60;;
434;SDS011;204;48.942;9.256;2022-08-03T10:45:58;2.30;;;2.00;;
434;SDS011;204;48.942;9.256;2022-08-03T10:48:26;6.73;;;2.17;;
434;SDS011;204;48.942;9.256;2022-08-03T10:50:52;3.13;;;2.00;;
434;SDS011;204;48.942;9.256;2022-08-03T10:53:37;2.73;;;1.90;;
434;SDS011;204;48.942;9.256;2022-08-03T10:56:06;2.00;;;1.90;;
434;SDS011;204;48.942;9.256;2022-08-03T10:59:16;5.27;;;1.63;;
434;SDS011;204;48.942;9.256;2022-08-03T11:01:52;2.53;;;2.07;;
434;SDS011;204;48.942;9.256;2022-08-03T11:04:21;1.73;;;1.70;;
434;SDS011;204;48.942;9.256;2022-08-03T11:06:54;2.37;;;2.20;;
434;SDS011;204;48.942;9.256;2022-08-03T11:12:26;2.00;;;1.90;;
434;SDS011;204;48.942;9.256;2022-08-03T11:14:52;2.30;;;2.10;;
434;SDS011;204;48.942;9.256;2022-08-03T11:17:19;1.90;;;1.87;;
434;SDS011;204;48.942;9.256;2022-08-03T11:19:48;2.20;;;2.00;;
434;SDS011;204;48.942;9.256;2022-08-03T11:22:15;5.10;;;4.80;;
434;SDS011;204;48.942;9.256;2022-08-03T11:29:59;2.63;;;2.40;;
434;SDS011;204;48.942;9.256;2022-08-03T11:32:58;2.53;;;1.67;;
434;SDS011;204;48.942;9.256;2022-08-03T11:35:27;2.40;;;1.80;;
434;SDS011;204;48.942;9.256;2022-08-03T11:45:59;3.57;;;2.10;;
434;SDS011;204;48.942;9.256;2022-08-03T11:48:27;1.70;;;1.67;;
434;SDS011;204;48.942;9.256;2022-08-03T11:51:04;2.30;;;2.10;;
434;SDS011;204;48.942;9.256;2022-08-03T11:53:31;2.20;;;2.00;;
434;SDS011;204;48.942;9.256;2022-08-03T11:55:58;2.50;;;2.30;;
434;SDS011;204;48.942;9.256;2022-08-03T11:58:26;2.27;;;2.07;;
434;SDS011;204;48.942;9.256;2022-08-03T12:00:53;1.80;;;1.70;;
434;SDS011;204;48.942;9.256;2022-08-03T12:03:31;2.27;;;2.00;;
434;SDS011;204;48.942;9.256;2022-08-03T12:05:58;2.17;;;1.63;;
434;SDS011;204;48.942;9.256;2022-08-03T12:10:52;2.73;;;1.90;;
434;SDS011;204;48.942;9.256;2022-08-03T12:13:19;1.77;;;1.70;;
434;SDS011;204;48.942;9.256;2022-08-03T12:15:49;1.53;;;1.43;;
434;SDS011;204;48.942;9.256;2022-08-03T12:18:17;3.50;;;1.50;;
434;SDS011;204;48.942;9.256;2022-08-03T12:20:44;1.30;;;1.23;;
434;SDS011;204;48.942;9.256;2022-08-03T12:23:11;2.07;;;1.93;;
434;SDS011;204;48.942;9.256;2022-08-03T12:25:37;1.77;;;1.70;;
434;SDS011;204;48.942;9.256;2022-08-03T12:30:40;1.70;;;1.67;;
434;SDS011;204;48.942;9.256;2022-08-03T12:33:13;2.13;;;1.97;;
434;SDS011;204;48.942;9.256;2022-08-03T12:35:44;2.43;;;1.77;;
434;SDS011;204;48.942;9.256;2022-08-03T12:38:11;2.00;;;1.90;;
434;SDS011;204;48.942;9.256;2022-08-03T12:40:37;4.97;;;4.67;;
434;SDS011;204;48.942;9.256;2022-08-03T12:43:11;2.20;;;2.00;;
434;SDS011;204;48.942;9.256;2022-08-03T12:45:37;2.20;;;1.50;;
434;SDS011;204;48.942;9.256;2022-08-03T12:48:06;1.50;;;1.40;;
434;SDS011;204;48.942;9.256;2022-08-03T12:50:34;1.63;;;1.53;;
434;SDS011;204;48.942;9.256;2022-08-03T12:53:03;1.70;;;1.60;;
434;SDS011;204;48.942;9.256;2022-08-03T12:55:30;2.20;;;1.80;;
434;SDS011;204;48.942;9.256;2022-08-03T12:57:59;3.73;;;1.70;;
434;SDS011;204;48.942;9.256;2022-08-03T13:00:28;2.07;;;1.73;;
434;SDS011;204;48.942;9.256;2022-08-03T13:03:13;3.60;;;2.10;;
434;SDS011;204;48.942;9.256;2022-08-03T13:05:42;3.10;;;2.53;;
434;SDS011;204;48.942;9.256;2022-08-03T13:08:21;2.87;;;2.70;;
434;SDS011;204;48.942;9.256;2022-08-03T13:10:49;2.90;;;2.70;;
434;SDS011;204;48.942;9.256;2022-08-03T13:13:14;2.07;;;1.93;;
434;SDS011;204;48.942;9.256;2022-08-03T13:15:40;1.87;;;1.77;;
434;SDS011;204;48.942;9.256;2022-08-03T13:18:06;1.80;;;1.70;;
434;SDS011;204;48.942;9.256;2022-08-03T13:20:32;2.20;;;2.00;;
434;SDS011;204;48.942;9.256;2022-08-03T13:22:58;2.20;;;2.00;;
434;SDS011;204;48.942;9.256;2022-08-03T13:25:24;1.80;;;1.60;;
434;SDS011;204;48.942;9.256;2022-08-03T13:27:49;1.70;;;1.60;;
434;SDS011;204;48.942;9.256;2022-08-03T13:30:16;1.93;;;1.83;;
434;SDS011;204;48.942;9.256;2022-08-03T13:32:42;2.23;;;2.03;;
434;SDS011;204;48.942;9.256;2022-08-03T13:35:08;2.13;;;1.80;;
434;SDS011;204;48.942;9.256;2022-08-03T13:37:35;3.70;;;2.17;;
434;SDS011;204;48.942;9.256;2022-08-03T13:40:02;2.07;;;1.70;;
434;SDS011;204;48.942;9.256;2022-08-03T13:42:30;1.70;;;1.60;;
434;SDS011;204;48.942;9.256;2022-08-03T13:44:57;2.37;;;2.17;;
434;SDS011;204;48.942;9.256;2022-08-03T13:47:23;2.60;;;2.40;;
434;SDS011;204;48.942;9.256;2022-08-03T13:49:49;2.10;;;1.97;;
434;SDS011;204;48.942;9.256;2022-08-03T13:52:16;2.20;;;2.00;;
434;SDS011;204;48.942;9.256;2022-08-03T13:54:42;1.77;;;1.67;;
434;SDS011;204;48.942;9.256;2022-08-03T13:57:07;2.37;;;1.80;;
434;SDS011;204;48.942;9.256;2022-08-03T13:59:35;2.63;;;1.90;;
434;SDS011;204;48.942;9.256;2022-08-03T14:02:01;2.57;;;1.47;;
434;SDS011;204;48.942;9.256;2022-08-03T14:04:26;1.87;;;1.77;;
434;SDS011;204;48.942;9.256;2022-08-03T14:06:52;3.87;;;3.00;;
434;SDS011;204;48.942;9.256;2022-08-03T14:09:18;3.13;;;2.70;;
434;SDS011;204;48.942;9.256;2022-08-03T14:11:43;4.70;;;3.27;;
434;SDS011;204;48.942;9.256;2022-08-03T14:14:09;3.30;;;2.73;;
434;SDS011;204;48.942;9.256;2022-08-03T14:16:36;2.80;;;2.30;;
434;SDS011;204;48.942;9.256;2022-08-03T14:19:02;2.17;;;2.00;;
434;SDS011;204;48.942;9.256;2022-08-03T14:21:28;2.80;;;2.00;;
434;SDS011;204;48.942;9.256;2022-08-03T14:23:54;1.90;;;1.80;;
434;SDS011;204;48.942;9.256;2022-08-03T14:26:20;1.83;;;1.83;;
434;SDS011;204;48.942;9.256;2022-08-03T14:28:46;1.73;;;1.63;;
434;SDS011;204;48.942;9.256;2022-08-03T14:31:12;5.40;;;2.40;;
434;SDS011;204;48.942;9.256;2022-08-03T14:33:38;2.23;;;2.03;;
434;SDS011;204;48.942;9.256;2022-08-03T14:36:04;2.07;;;1.90;;
434;SDS011;204;48.942;9.256;2022-08-03T14:38:29;1.70;;;1.60;;
434;SDS011;204;48.942;9.256;2022-08-03T14:40:55;2.50;;;2.20;;
434;SDS011;204;48.942;9.256;2022-08-03T14:43:20;5.03;;;3.00;;
434;SDS011;204;48.942;9.256;2022-08-03T14:45:47;1.63;;;1.53;;
434;SDS011;204;48.942;9.256;2022-08-03T14:48:16;1.73;;;1.63;;
434;SDS011;204;48.942;9.256;2022-08-03T14:50:42;2.40;;;2.00;;
434;SDS011;204;48.942;9.256;2022-08-03T14:53:07;3.23;;;1.90;;
434;SDS011;204;48.942;9.256;2022-08-03T14:55:33;1.73;;;1.60;;
434;SDS011;204;48.942;9.256;2022-08-03T14:57:59;1.30;;;1.30;;
434;SDS011;204;48.942;9.256;2022-08-03T15:00:29;3.30;;;2.13;;
434;SDS011;204;48.942;9.256;2022-08-03T15:02:55;3.07;;;2.43;;
434;SDS011;204;48.942;9.256;2022-08-03T15:05:21;2.27;;;2.07;;
434;SDS011;204;48.942;9.256;2022-08-03T15:07:47;2.60;;;2.13;;
434;SDS011;204;48.942;9.256;2022-08-03T15:10:12;1.43;;;1.33;;
434;SDS011;204;48.942;9.256;2022-08-03T15:12:38;1.80;;;1.70;;
434;SDS011;204;48.942;9.256;2022-08-03T15:15:03;1.83;;;1.40;;
434;SDS011;204;48.942;9.256;2022-08-03T15:17:29;1.63;;;1.53;;
434;SDS011;204;48.942;9.256;2022-08-03T15:19:55;1.70;;;1.60;;
434;SDS011;204;48.942;9.256;2022-08-03T15:22:20;1.77;;;1.50;;
434;SDS011;204;48.942;9.256;2022-08-03T15:24:46;1.83;;;1.67;;
434;SDS011;204;48.942;9.256;2022-08-03T15:27:12;4.50;;;1.90;;
434;SDS011;204;48.942;9.256;2022-08-03T15:29:37;1.90;;;1.60;;
434;SDS011;204;48.942;9.256;2022-08-03T15:32:03;2.30;;;1.77;;
434;SDS011;204;48.942;9.256;2022-08-03T15:34:29;1.30;;;1.20;;
434;SDS011;204;48.942;9.256;2022-08-03T15:36:54;2.50;;;2.30;;
434;SDS011;204;48.942;9.256;2022-08-03T15:39:20;2.13;;;1.90;;
434;SDS011;204;48.942;9.256;2022-08-03T15:41:45;1.80;;;1.70;;
434;SDS011;204;48.942;9.256;2022-08-03T15:44:11;2.30;;;1.80;;
434;SDS011;204;48.942;9.256;2022-08-03T15:46:37;2.23;;;2.03;;
434;SDS011;204;48.942;9.256;2022-08-03T15:49:02;3.80;;;1.87;;
434;SDS011;204;48.942;9.256;2022-08-03T15:51:28;2.97;;;2.20;;
434;SDS011;204;48.942;9.256;2022-08-03T15:53:53;2.90;;;1.83;;
434;SDS011;204;48.942;9.256;2022-08-03T15:56:21;1.77;;;1.70;;
434;SDS011;204;48.942;9.256;2022-08-03T15:58:47;1.80;;;1.43;;
434;SDS011;204;48.942;9.256;2022-08-03T16:01:12;1.40;;;1.30;;
434;SDS011;204;48.942;9.256;2022-08-03T16:03:38;1.43;;;1.33;;
434;SDS011;204;48.942;9.256;2022-08-03T16:06:04;2.33;;;1.90;;
434;SDS011;204;48.942;9.256;2022-08-03T16:08:31;5.37;;;1.70;;
434;SDS011;204;48.942;9.256;2022-08-03T16:10:57;1.67;;;1.63;;
434;SDS011;204;48.942;9.256;2022-08-03T16:13:23;1.80;;;1.70;;
434;SDS011;204;48.942;9.256;2022-08-03T16:15:49;1.70;;;1.60;;
434;SDS011;204;48.942;9.256;2022-08-03T16:18:14;1.57;;;1.47;;
434;SDS011;204;48.942;9.256;2022-08-03T16:20:41;1.80;;;1.70;;
434;SDS011;204;48.942;9.256;2022-08-03T16:23:06;1.53;;;1.43;;
434;SDS011;204;48.942;9.256;2022-08-03T16:25:32;2.23;;;1.53;;
434;SDS011;204;48.942;9.256;2022-08-03T16:27:58;1.60;;;1.50;;
434;SDS011;204;48.942;9.256;2022-08-03T16:30:24;1.67;;;1.60;;
434;SDS011;204;48.942;9.256;2022-08-03T16:32:49;1.63;;;1.53;;